Time;durP1;ratioP1;P1;durP2;ratioP2;P2;SDS_P1;SDS_P2;PMS_P1;PMS_P2;Temp;Humidity;BMP_temperature;BMP_pressure;BME280_temperature;BME280_humidity;BME280_pressure;Samples;Min_cycle;Max_cycle;Signal;HPM_P1;HPM_P2
2023/01/01 00:01:15;;;;;;;264.98;236.10;;;26.40;99.90;;;;;;4986435;28;20044;-66
2023/01/01 00:03:42;;;;;;;322.45;288.33;;;26.30;99.90;;;;;;5037508;28;20030;-66
2023/01/01 00:06:12;;;;;;;389.42;335.70;;;26.30;99.90;;;;;;5034622;28;20017;-66
2023/01/01 00:08:39;;;;;;;377.63;304.45;;;26.20;99.90;;;;;;5034493;28;20073;-65
2023/01/01 00:11:07;;;;;;;197.80;170.70;;;26.30;99.90;;;;;;5034579;28;20070;-66
2023/01/01 00:13:36;;;;;;;407.52;365.08;;;26.20;99.90;;;;;;5034512;28;20044;-66
2023/01/01 00:16:11;;;;;;;165.25;138.98;;;26.30;99.90;;;;;;5034455;28;20526;-65
2023/01/01 00:18:38;;;;;;;95.10;60.90;;;26.30;99.90;;;;;;5034532;28;20386;-66
2023/01/01 00:21:08;;;;;;;91.72;50.47;;;26.30;99.90;;;;;;5034197;28;20044;-65
2023/01/01 00:23:35;;;;;;;87.28;51.78;;;26.40;99.90;;;;;;5049660;28;20028;-65
2023/01/01 00:26:10;;;;;;;116.00;72.78;;;26.40;99.90;;;;;;5053985;28;20017;-66
2023/01/01 00:28:37;;;;;;;147.35;90.10;;;26.50;99.90;;;;;;5053333;28;20498;-65
2023/01/01 00:31:16;;;;;;;63.70;37.33;;;26.50;99.90;;;;;;5053924;28;20044;-66
2023/01/01 00:33:43;;;;;;;74.47;42.00;;;26.50;99.90;;;;;;5053418;28;20025;-65
2023/01/01 00:36:10;;;;;;;136.70;94.72;;;26.60;99.90;;;;;;5016210;28;20433;-66
2023/01/01 00:38:37;;;;;;;66.55;41.92;;;26.70;99.90;;;;;;5034068;28;20538;-66
2023/01/01 00:41:04;;;;;;;57.90;33.97;;;26.70;99.90;;;;;;5045485;28;20487;-65
2023/01/01 00:43:31;;;;;;;70.30;36.25;;;26.70;99.90;;;;;;5038520;28;20025;-66
2023/01/01 00:45:57;;;;;;;60.00;33.10;;;26.80;99.90;;;;;;5036283;28;20052;-67
2023/01/01 00:48:24;;;;;;;56.53;32.90;;;26.90;99.90;;;;;;5047646;28;20386;-66
2023/01/01 00:50:51;;;;;;;64.65;32.58;;;26.90;99.90;;;;;;5043707;28;20414;-66
2023/01/01 00:53:19;;;;;;;56.97;29.25;;;27.00;99.90;;;;;;5053535;28;20017;-65
2023/01/01 00:55:48;;;;;;;54.30;28.52;;;27.00;99.90;;;;;;5036217;28;20048;-65
2023/01/01 00:58:16;;;;;;;49.67;26.63;;;27.00;99.90;;;;;;5033254;28;20045;-65
2023/01/01 01:00:43;;;;;;;49.63;26.15;;;27.10;99.90;;;;;;5033616;28;20026;-66
2023/01/01 01:03:26;;;;;;;60.20;27.80;;;27.20;99.90;;;;;;5045990;28;20025;-66
2023/01/01 01:06:11;;;;;;;54.00;24.23;;;27.20;99.90;;;;;;5034936;28;20033;-67
2023/01/01 01:08:41;;;;;;;49.38;25.17;;;27.20;99.90;;;;;;5041585;28;20025;-67
2023/01/01 01:11:20;;;;;;;59.70;25.10;;;27.20;99.90;;;;;;5053246;28;20103;-67
2023/01/01 01:13:49;;;;;;;59.60;24.17;;;27.30;99.90;;;;;;5053507;28;20028;-66
2023/01/01 01:16:17;;;;;;;46.65;21.35;;;27.30;99.90;;;;;;5048196;28;20026;-66
2023/01/01 01:18:44;;;;;;;48.05;22.60;;;27.30;99.90;;;;;;5033395;28;20033;-66
2023/01/01 01:21:15;;;;;;;39.10;19.83;;;27.40;99.90;;;;;;5033420;28;20394;-65
2023/01/01 01:23:42;;;;;;;40.85;19.80;;;27.40;99.90;;;;;;5032910;28;20024;-64
2023/01/01 01:26:10;;;;;;;43.75;18.92;;;27.40;99.90;;;;;;5033178;28;20036;-64
2023/01/01 01:28:36;;;;;;;41.78;20.35;;;27.50;99.90;;;;;;5033426;28;20031;-65
2023/01/01 01:31:03;;;;;;;38.05;18.20;;;27.60;99.90;;;;;;5064074;23;20065;-60
2023/01/01 01:33:30;;;;;;;43.22;19.02;;;27.60;99.90;;;;;;5033288;28;20084;-61
2023/01/01 01:35:57;;;;;;;42.25;18.27;;;27.60;99.90;;;;;;5013223;28;20029;-64
2023/01/01 01:38:23;;;;;;;47.55;18.92;;;27.70;99.90;;;;;;5026093;28;20025;-64
2023/01/01 01:40:50;;;;;;;39.83;17.20;;;27.80;99.90;;;;;;5017834;28;20065;-65
2023/01/01 01:43:44;;;;;;;45.15;19.58;;;27.80;99.90;;;;;;5031536;28;20044;-65
2023/01/01 01:46:17;;;;;;;48.38;19.42;;;27.90;99.90;;;;;;5032942;28;20049;-66
2023/01/01 01:48:44;;;;;;;;;;;28.00;99.90;;;;;;5017514;28;20032;-65
2023/01/01 01:51:14;;;;;;;42.10;18.55;;;28.10;99.90;;;;;;5020745;28;19987;-66
2023/01/01 01:53:47;;;;;;;41.05;18.83;;;28.10;99.90;;;;;;5032882;28;20083;-66
2023/01/01 01:56:18;;;;;;;39.03;15.52;;;28.20;99.90;;;;;;5031611;28;20474;-65
2023/01/01 01:58:44;;;;;;;44.90;16.08;;;28.20;99.90;;;;;;5014378;28;20057;-63
2023/01/01 02:01:11;;;;;;;40.35;17.08;;;28.20;99.90;;;;;;5038374;28;20067;-64
2023/01/01 02:03:43;;;;;;;30.95;13.30;;;28.30;99.90;;;;;;5036266;28;20386;-64
2023/01/01 02:06:11;;;;;;;41.53;15.15;;;28.30;99.90;;;;;;5013328;28;20022;-65
2023/01/01 02:08:38;;;;;;;39.92;15.82;;;28.30;99.90;;;;;;5013240;28;20022;-63
2023/01/01 02:11:05;;;;;;;36.63;14.90;;;28.30;99.90;;;;;;5018617;28;20040;-64
2023/01/01 02:13:31;;;;;;;36.40;13.00;;;28.40;99.90;;;;;;5052748;28;20026;-66
2023/01/01 02:16:07;;;;;;;35.83;14.07;;;28.40;99.90;;;;;;5052650;28;20033;-65
2023/01/01 02:18:58;;;;;;;33.15;13.98;;;28.40;99.90;;;;;;5052572;28;20021;-66
2023/01/01 02:21:45;;;;;;;38.35;15.18;;;28.40;99.90;;;;;;5038788;28;20058;-67
2023/01/01 02:24:35;;;;;;;32.22;15.10;;;28.40;99.90;;;;;;5028025;28;20057;-64
2023/01/01 02:27:15;;;;;;;33.08;15.00;;;28.50;99.90;;;;;;5024692;28;20029;-64
2023/01/01 02:29:54;;;;;;;45.90;18.27;;;28.50;99.90;;;;;;5025287;28;20050;-63
2023/01/01 02:32:43;;;;;;;39.28;16.63;;;28.60;99.90;;;;;;5024614;28;20021;-69
2023/01/01 02:35:33;;;;;;;44.45;19.70;;;28.60;99.90;;;;;;4944940;29;20042;-67
2023/01/01 02:38:16;;;;;;;33.83;15.57;;;28.70;99.90;;;;;;4945402;29;20028;-66
2023/01/01 02:40:48;;;;;;;30.52;13.48;;;28.70;99.90;;;;;;4942953;29;20050;-65
2023/01/01 02:43:14;;;;;;;;;;;28.80;99.90;;;;;;4945031;29;20027;-66
2023/01/01 02:45:40;;;;;;;33.65;13.70;;;28.80;99.90;;;;;;4944994;29;19917;-68
2023/01/01 02:48:46;;;;;;;38.33;16.48;;;28.80;99.90;;;;;;4944797;29;20038;-66
2023/01/01 02:51:17;;;;;;;37.47;15.95;;;28.90;99.90;;;;;;4943776;28;20062;-68
2023/01/01 02:53:52;;;;;;;35.70;14.13;;;28.90;99.90;;;;;;4948946;29;20114;-66
2023/01/01 02:56:48;;;;;;;34.58;15.43;;;29.00;99.90;;;;;;4946346;29;20472;-65
2023/01/01 03:02:43;;;;;;;43.22;15.27;;;29.10;99.90;;;;;;4948505;29;20493;-66
2023/01/01 03:05:22;;;;;;;37.03;13.88;;;29.10;99.90;;;;;;4965549;28;20040;-67
2023/01/01 03:08:14;;;;;;;24.88;12.50;;;29.20;99.90;;;;;;5024118;28;20014;-67
2023/01/01 03:10:56;;;;;;;37.13;13.48;;;29.20;99.90;;;;;;4953623;29;20547;-65
2023/01/01 03:13:24;;;;;;;;;;;29.20;99.90;;;;;;4954531;28;20127;-66
2023/01/01 03:16:08;;;;;;;33.28;14.07;;;29.10;99.90;;;;;;4958094;28;19910;-67
2023/01/01 03:18:41;;;;;;;44.80;22.13;;;29.10;99.90;;;;;;4955482;28;20039;-65
2023/01/01 03:21:09;;;;;;;79.05;48.38;;;29.10;99.90;;;;;;4957314;28;20130;-67
2023/01/01 03:23:45;;;;;;;34.05;17.15;;;29.20;99.90;;;;;;4957204;28;20030;-66
2023/01/01 03:26:14;;;;;;;32.75;15.73;;;29.20;99.90;;;;;;4954866;28;20146;-67
2023/01/01 03:28:55;;;;;;;32.42;14.27;;;29.20;99.90;;;;;;4956928;28;20032;-65
2023/01/01 03:31:25;;;;;;;32.92;14.48;;;29.30;99.90;;;;;;4956457;28;20412;-65
2023/01/01 03:33:59;;;;;;;34.28;14.73;;;29.30;99.90;;;;;;4955037;28;20019;-65
2023/01/01 03:36:34;;;;;;;29.27;12.43;;;29.20;99.90;;;;;;4962547;28;20121;-65
2023/01/01 03:39:10;;;;;;;34.30;14.38;;;29.20;99.90;;;;;;4954844;29;20035;-67
2023/01/01 03:41:41;;;;;;;33.83;15.32;;;29.20;99.90;;;;;;4969482;28;20050;-68
2023/01/01 03:44:33;;;;;;;32.78;13.65;;;29.20;99.90;;;;;;4973905;28;20023;-68
2023/01/01 03:47:00;;;;;;;34.97;13.50;;;29.30;99.90;;;;;;4974120;28;20035;-68
2023/01/01 03:49:29;;;;;;;32.13;14.52;;;29.40;99.90;;;;;;4973930;28;20472;-66
2023/01/01 03:52:14;;;;;;;34.88;15.45;;;29.50;99.90;;;;;;4957796;28;20023;-64
2023/01/01 03:55:10;;;;;;;27.35;13.10;;;29.50;99.90;;;;;;4958801;28;20031;-67
2023/01/01 03:57:39;;;;;;;32.97;13.68;;;29.60;99.90;;;;;;4936141;29;20036;-68
2023/01/01 04:00:15;;;;;;;30.75;13.82;;;29.70;99.90;;;;;;4935528;29;20501;-68
2023/01/01 04:02:59;;;;;;;30.80;13.05;;;29.70;99.90;;;;;;4949866;28;20037;-65
2023/01/01 04:05:27;;;;;;;35.47;14.35;;;29.80;99.90;;;;;;4974215;28;20114;-63
2023/01/01 04:07:54;;;;;;;43.67;19.50;;;29.80;99.90;;;;;;5011518;28;20057;-65
2023/01/01 04:10:22;;;;;;;32.08;14.00;;;29.90;99.90;;;;;;5034697;28;20022;-65
2023/01/01 04:12:54;;;;;;;30.02;13.73;;;29.90;99.90;;;;;;5026258;28;20017;-65
2023/01/01 04:15:24;;;;;;;34.85;14.45;;;30.00;99.90;;;;;;5014961;28;20052;-65
2023/01/01 04:17:51;;;;;;;31.50;14.88;;;30.10;99.90;;;;;;5014815;28;20096;-64
2023/01/01 04:20:18;;;;;;;27.48;13.23;;;30.20;99.90;;;;;;5014829;28;20387;-65
2023/01/01 04:22:46;;;;;;;22.80;13.27;;;30.30;99.90;;;;;;5022894;28;20060;-64
2023/01/01 04:25:14;;;;;;;30.00;13.73;;;30.20;99.90;;;;;;5034664;28;20025;-65
2023/01/01 04:27:40;;;;;;;31.27;13.45;;;30.30;99.90;;;;;;5034640;28;20025;-66
2023/01/01 04:30:10;;;;;;;30.63;13.10;;;30.50;99.90;;;;;;5033709;28;20053;-64
2023/01/01 04:32:37;;;;;;;28.05;13.60;;;30.50;99.90;;;;;;5034175;28;20026;-65
2023/01/01 04:35:04;;;;;;;32.03;13.60;;;30.40;99.90;;;;;;5023197;28;20025;-63
2023/01/01 04:37:31;;;;;;;28.55;13.60;;;30.50;99.90;;;;;;5014133;28;20040;-64
2023/01/01 04:39:57;;;;;;;30.48;18.35;;;30.50;99.90;;;;;;5014206;28;20045;-64
2023/01/01 04:42:24;;;;;;;33.72;17.17;;;30.60;99.90;;;;;;5014043;28;20018;-63
2023/01/01 04:44:50;;;;;;;27.83;15.55;;;30.70;99.90;;;;;;5008110;28;20029;-65
2023/01/01 04:47:17;;;;;;;36.95;19.58;;;30.70;99.90;;;;;;5026438;28;20021;-64
2023/01/01 04:49:43;;;;;;;31.35;15.88;;;30.80;99.90;;;;;;5017968;28;20034;-63
2023/01/01 04:52:10;;;;;;;32.92;17.55;;;30.70;99.90;;;;;;5029763;28;20036;-64
2023/01/01 04:54:36;;;;;;;28.83;15.65;;;30.90;99.90;;;;;;5023164;28;20038;-64
2023/01/01 04:57:03;;;;;;;31.05;17.17;;;31.00;99.90;;;;;;5025071;28;20021;-63
2023/01/01 04:59:30;;;;;;;35.85;13.27;;;31.00;99.90;;;;;;5024438;28;20025;-65
2023/01/01 05:01:57;;;;;;;23.67;11.90;;;31.20;99.90;;;;;;5024291;28;20017;-65
2023/01/01 05:04:23;;;;;;;22.88;13.15;;;31.20;99.90;;;;;;5024893;28;20024;-64
2023/01/01 05:06:50;;;;;;;26.02;12.45;;;31.30;99.90;;;;;;5023769;28;20381;-64
2023/01/01 05:09:16;;;;;;;24.95;11.38;;;31.40;99.90;;;;;;5023559;28;20467;-65
2023/01/01 05:11:42;;;;;;;25.83;12.85;;;31.40;99.90;;;;;;5025181;28;20021;-65
2023/01/01 05:14:09;;;;;;;22.33;12.13;;;31.40;99.90;;;;;;5025069;28;20100;-64
2023/01/01 05:16:37;;;;;;;23.58;12.68;;;31.40;99.90;;;;;;5025849;28;20029;-64
2023/01/01 05:19:05;;;;;;;26.13;12.45;;;31.20;99.90;;;;;;5024369;28;20026;-65
2023/01/01 05:21:34;;;;;;;32.00;14.32;;;31.30;99.90;;;;;;5017855;28;20049;-64
2023/01/01 05:24:03;;;;;;;23.95;11.55;;;31.40;99.90;;;;;;5022462;28;20482;-64
2023/01/01 05:26:33;;;;;;;33.05;12.95;;;31.40;99.90;;;;;;5024030;28;20030;-64
2023/01/01 05:29:00;;;;;;;26.80;13.07;;;31.40;99.90;;;;;;5025233;28;20057;-64
2023/01/01 05:31:29;;;;;;;25.42;13.73;;;31.40;99.90;;;;;;5024014;28;20030;-65
2023/01/01 05:33:56;;;;;;;33.15;13.98;;;31.50;99.90;;;;;;5023209;28;20113;-65
2023/01/01 05:36:26;;;;;;;28.23;16.08;;;31.50;99.90;;;;;;5024982;28;20378;-64
2023/01/01 05:38:53;;;;;;;39.67;21.48;;;31.40;99.90;;;;;;5024199;28;20025;-63
2023/01/01 05:41:20;;;;;;;52.05;28.27;;;31.40;99.90;;;;;;5024099;28;20026;-64
2023/01/01 05:43:47;;;;;;;32.20;15.13;;;31.50;99.90;;;;;;5023141;28;20391;-64
2023/01/01 05:46:20;;;;;;;36.95;16.63;;;31.60;99.90;;;;;;5025477;28;20013;-66
2023/01/01 05:48:47;;;;;;;23.00;13.05;;;31.60;99.90;;;;;;5015512;28;20097;-63
2023/01/01 05:51:18;;;;;;;26.27;11.73;;;31.70;99.90;;;;;;5021328;28;20113;-66
2023/01/01 05:53:45;;;;;;;23.90;12.63;;;31.80;99.90;;;;;;5016485;28;20026;-64
2023/01/01 05:56:13;;;;;;;27.23;15.25;;;31.90;99.90;;;;;;5014738;28;20025;-64
2023/01/01 05:58:39;;;;;;;23.92;11.25;;;32.00;99.90;;;;;;5020593;28;20093;-64
2023/01/01 06:01:11;;;;;;;22.50;11.93;;;32.00;99.90;;;;;;5020287;28;20045;-62
2023/01/01 06:03:38;;;;;;;;;;;32.10;99.90;;;;;;5019775;28;20071;-64
2023/01/01 06:06:08;;;;;;;25.38;15.35;;;32.20;99.90;;;;;;5019109;28;19913;-65
2023/01/01 06:08:35;;;;;;;17.83;10.73;;;32.20;99.90;;;;;;5016519;28;20018;-63
2023/01/01 06:11:04;;;;;;;28.52;12.73;;;32.30;99.90;;;;;;5016371;28;20121;-66
2023/01/01 06:13:31;;;;;;;21.38;10.57;;;32.20;99.90;;;;;;5016038;28;20074;-65
2023/01/01 06:15:59;;;;;;;20.30;10.57;;;32.20;99.90;;;;;;5014382;28;20034;-67
2023/01/01 06:18:28;;;;;;;20.02;10.52;;;32.10;99.90;;;;;;5012250;28;20048;-65
2023/01/01 06:21:03;;;;;;;17.75;10.75;;;32.20;99.90;;;;;;5014959;28;20022;-67
2023/01/01 06:23:29;;;;;;;26.67;14.27;;;32.20;99.90;;;;;;5014691;28;20061;-65
2023/01/01 06:25:55;;;;;;;20.13;14.52;;;32.30;99.90;;;;;;5022958;28;20040;-66
2023/01/01 06:28:22;;;;;;;25.27;11.77;;;32.30;99.90;;;;;;5021564;28;20202;-67
2023/01/01 06:30:48;;;;;;;22.00;12.43;;;32.40;99.90;;;;;;5019016;28;20041;-66
2023/01/01 06:33:15;;;;;;;43.00;25.48;;;32.50;99.90;;;;;;5019355;28;20068;-67
2023/01/01 06:35:41;;;;;;;23.33;13.10;;;32.50;99.90;;;;;;5021799;28;20041;-67
2023/01/01 06:38:08;;;;;;;26.45;13.18;;;32.60;99.90;;;;;;5018597;28;20044;-66
2023/01/01 06:40:34;;;;;;;19.55;11.02;;;32.50;99.90;;;;;;5018307;28;20080;-66
2023/01/01 06:43:01;;;;;;;24.88;12.10;;;32.50;99.90;;;;;;5018782;28;20104;-67
2023/01/01 06:45:27;;;;;;;18.13;10.25;;;32.50;99.90;;;;;;5018677;28;20203;-66
2023/01/01 06:47:56;;;;;;;21.23;11.48;;;32.60;99.90;;;;;;5017525;28;20022;-66
2023/01/01 06:50:22;;;;;;;22.10;11.13;;;32.60;99.90;;;;;;5017063;28;20026;-66
2023/01/01 06:52:48;;;;;;;24.90;12.57;;;32.50;99.90;;;;;;5015844;28;20053;-67
2023/01/01 06:55:15;;;;;;;16.08;10.20;;;32.50;99.90;;;;;;5014615;28;20547;-65
2023/01/01 06:57:42;;;;;;;22.83;12.07;;;32.50;99.90;;;;;;5018564;28;20079;-67
2023/01/01 07:00:08;;;;;;;24.70;13.27;;;32.60;99.90;;;;;;5018294;28;20030;-65
2023/01/01 07:02:35;;;;;;;27.58;13.80;;;32.70;99.90;;;;;;5017814;28;20065;-66
2023/01/01 07:05:01;;;;;;;23.70;14.15;;;32.80;99.90;;;;;;5017830;28;20072;-66
2023/01/01 07:07:28;;;;;;;23.17;11.95;;;32.70;99.90;;;;;;5017844;28;20022;-66
2023/01/01 07:09:54;;;;;;;23.33;10.52;;;32.80;99.90;;;;;;5017805;28;20076;-65
2023/01/01 07:12:21;;;;;;;18.35;10.63;;;32.90;99.90;;;;;;5017613;28;20045;-65
2023/01/01 07:14:47;;;;;;;32.90;20.17;;;32.90;99.90;;;;;;5018412;28;20030;-65
2023/01/01 07:17:14;;;;;;;33.10;20.33;;;32.90;99.90;;;;;;5017901;28;20033;-65
2023/01/01 07:19:40;;;;;;;26.75;14.63;;;32.90;99.90;;;;;;5015995;28;20033;-65
2023/01/01 07:22:09;;;;;;;19.85;13.35;;;32.90;99.90;;;;;;5005632;28;20032;-65
2023/01/01 07:24:37;;;;;;;20.50;12.35;;;32.90;99.90;;;;;;5017782;28;20045;-66
2023/01/01 07:27:03;;;;;;;18.92;10.65;;;32.90;99.90;;;;;;5019407;28;20116;-65
2023/01/01 07:29:30;;;;;;;15.55;10.30;;;32.90;99.90;;;;;;5023618;28;20084;-66
2023/01/01 07:31:56;;;;;;;21.92;11.77;;;32.90;99.90;;;;;;5016683;28;20036;-66
2023/01/01 07:34:23;;;;;;;19.00;10.18;;;33.00;99.90;;;;;;5017687;28;20014;-66
2023/01/01 07:36:50;;;;;;;20.40;10.60;;;33.10;99.90;;;;;;5016394;28;20109;-66
2023/01/01 07:39:16;;;;;;;27.50;11.55;;;33.10;99.90;;;;;;5011683;28;20483;-66
2023/01/01 07:41:43;;;;;;;22.63;11.18;;;33.10;99.90;;;;;;5017442;28;20042;-66
2023/01/01 07:44:09;;;;;;;20.90;12.13;;;33.10;99.90;;;;;;5017678;28;20057;-67
2023/01/01 07:46:36;;;;;;;26.42;12.93;;;33.20;99.90;;;;;;5017708;28;20030;-66
2023/01/01 07:49:04;;;;;;;23.88;10.95;;;33.10;99.90;;;;;;5017385;28;20106;-66
2023/01/01 07:51:30;;;;;;;19.02;10.20;;;33.10;99.90;;;;;;5017910;28;20029;-68
2023/01/01 07:53:57;;;;;;;21.73;11.05;;;33.10;99.90;;;;;;5017175;28;20026;-66
2023/01/01 07:56:23;;;;;;;27.00;10.20;;;33.10;99.90;;;;;;5017966;28;20053;-66
2023/01/01 07:58:50;;;;;;;20.15;10.07;;;32.90;99.90;;;;;;5018173;28;20022;-67
2023/01/01 08:01:17;;;;;;;19.90;10.88;;;32.80;99.90;;;;;;5013223;28;20030;-64
2023/01/01 08:03:44;;;;;;;26.50;11.05;;;32.70;99.90;;;;;;5012538;28;20080;-65
2023/01/01 08:06:12;;;;;;;24.58;10.80;;;32.60;99.90;;;;;;5014782;28;20426;-66
2023/01/01 08:08:39;;;;;;;23.65;10.48;;;32.50;99.90;;;;;;5013641;28;20072;-67
2023/01/01 08:11:05;;;;;;;20.83;9.25;;;32.30;99.90;;;;;;5011795;28;20112;-66
2023/01/01 08:13:32;;;;;;;17.05;9.02;;;32.10;99.90;;;;;;5012659;28;20022;-66
2023/01/01 08:15:58;;;;;;;19.10;9.73;;;32.00;99.90;;;;;;5013191;28;20109;-67
2023/01/01 08:18:25;;;;;;;22.95;9.32;;;31.80;99.90;;;;;;5011039;28;20026;-66
2023/01/01 08:20:53;;;;;;;27.98;10.55;;;31.70;99.90;;;;;;5014397;28;20014;-66
2023/01/01 08:23:19;;;;;;;27.85;10.25;;;31.70;99.90;;;;;;5014379;28;20018;-67
2023/01/01 08:25:46;;;;;;;26.30;11.13;;;31.60;99.90;;;;;;5013482;28;20057;-68
2023/01/01 08:28:12;;;;;;;21.05;9.35;;;31.60;99.90;;;;;;5014938;28;20551;-68
2023/01/01 08:30:39;;;;;;;21.30;10.18;;;31.50;99.90;;;;;;5014274;28;20038;-67
2023/01/01 08:33:05;;;;;;;21.40;10.38;;;31.50;99.90;;;;;;5013066;28;20025;-66
2023/01/01 08:35:41;;;;;;;20.20;10.85;;;31.40;99.90;;;;;;5013544;28;20081;-67
2023/01/01 08:38:10;;;;;;;23.75;10.40;;;31.40;99.90;;;;;;5011427;28;20029;-68
2023/01/01 08:40:38;;;;;;;27.25;11.45;;;31.40;99.90;;;;;;5012818;28;20491;-67
2023/01/01 08:43:05;;;;;;;21.85;9.52;;;31.40;99.90;;;;;;5011371;28;20410;-67
2023/01/01 08:45:31;;;;;;;20.02;10.25;;;31.40;99.90;;;;;;5012974;28;20022;-66
2023/01/01 08:47:58;;;;;;;25.60;12.48;;;31.40;99.90;;;;;;5012186;28;20017;-65
2023/01/01 08:50:25;;;;;;;33.85;15.73;;;31.40;99.90;;;;;;5009905;28;20041;-64
2023/01/01 08:52:52;;;;;;;20.05;11.00;;;31.50;99.90;;;;;;5015643;28;20566;-64
2023/01/01 08:55:19;;;;;;;24.67;10.82;;;31.50;99.90;;;;;;5014348;28;20040;-64
2023/01/01 08:57:45;;;;;;;23.65;11.43;;;31.50;99.90;;;;;;5014598;28;20442;-64
2023/01/01 09:00:12;;;;;;;31.30;12.02;;;31.50;99.90;;;;;;5014807;28;20028;-63
2023/01/01 09:02:39;;;;;;;24.95;11.00;;;31.50;99.90;;;;;;5014355;28;20029;-63
2023/01/01 09:05:06;;;;;;;24.23;12.48;;;31.40;99.90;;;;;;5013120;28;20149;-63
2023/01/01 09:07:32;;;;;;;19.92;9.15;;;31.50;99.90;;;;;;5012521;28;20402;-61
2023/01/01 09:09:59;;;;;;;21.17;9.07;;;31.50;99.90;;;;;;5014602;28;20057;-63
2023/01/01 09:12:25;;;;;;;20.73;10.00;;;31.50;99.90;;;;;;5014144;28;20057;-64
2023/01/01 09:14:52;;;;;;;24.45;11.15;;;31.50;99.90;;;;;;5021275;28;20025;-64
2023/01/01 09:17:18;;;;;;;17.58;9.25;;;31.50;99.90;;;;;;5013578;28;20030;-63
2023/01/01 09:19:45;;;;;;;25.48;12.07;;;31.40;99.90;;;;;;5013498;28;20080;-63
2023/01/01 09:22:12;;;;;;;19.65;10.18;;;31.50;99.90;;;;;;5009877;28;20541;-64
2023/01/01 09:24:39;;;;;;;24.30;8.80;;;31.40;99.90;;;;;;5013183;28;20022;-61
2023/01/01 09:27:05;;;;;;;18.92;10.00;;;31.40;99.90;;;;;;5013325;28;20111;-61
2023/01/01 09:29:32;;;;;;;31.85;14.82;;;31.50;99.90;;;;;;5012886;28;20049;-62
2023/01/01 09:31:58;;;;;;;27.67;12.52;;;31.50;99.90;;;;;;5012360;28;20022;-62
2023/01/01 09:34:25;;;;;;;20.10;9.52;;;31.40;99.90;;;;;;5009168;28;20029;-62
2023/01/01 09:36:51;;;;;;;19.70;9.13;;;31.40;99.90;;;;;;5017286;28;20049;-62
2023/01/01 09:39:18;;;;;;;21.70;10.18;;;31.40;99.90;;;;;;5013031;28;20502;-62
2023/01/01 09:42:06;;;;;;;17.80;9.57;;;31.40;99.90;;;;;;5012536;28;20053;-65
2023/01/01 09:44:34;;;;;;;25.38;10.98;;;31.30;99.90;;;;;;5012888;28;20533;-63
2023/01/01 09:47:05;;;;;;;23.63;10.93;;;31.30;99.90;;;;;;5013924;28;20048;-64
2023/01/01 09:49:44;;;;;;;29.80;11.32;;;31.30;99.90;;;;;;5013478;28;20109;-64
2023/01/01 09:52:14;;;;;;;25.92;10.63;;;31.20;99.90;;;;;;5013480;28;20049;-63
2023/01/01 09:54:42;;;;;;;20.58;9.63;;;31.30;99.90;;;;;;5013578;28;20068;-64
2023/01/01 09:57:12;;;;;;;23.23;10.43;;;31.30;99.90;;;;;;5013229;28;20034;-63
2023/01/01 09:59:39;;;;;;;21.52;9.73;;;31.40;99.90;;;;;;5013406;28;20479;-63
2023/01/01 10:02:34;;;;;;;19.20;8.98;;;31.30;99.90;;;;;;5017353;28;20100;-63
2023/01/01 10:05:09;;;;;;;19.85;9.75;;;31.30;99.90;;;;;;5017231;28;20034;-63
2023/01/01 10:07:59;;;;;;;25.80;10.48;;;31.10;99.90;;;;;;5017236;28;20080;-63
2023/01/01 10:10:39;;;;;;;24.48;12.35;;;31.00;99.90;;;;;;5017325;28;20037;-63
2023/01/01 10:13:14;;;;;;;23.77;12.52;;;31.00;99.90;;;;;;5017131;28;20059;-64
2023/01/01 10:16:05;;;;;;;31.30;13.57;;;31.00;99.90;;;;;;5007327;28;20022;-66
2023/01/01 10:18:37;;;;;;;30.95;15.95;;;31.00;99.90;;;;;;4966178;28;20043;-66
2023/01/01 10:21:11;;;;;;;34.47;18.53;;;31.00;99.90;;;;;;4968761;28;20132;-66
2023/01/01 10:23:46;;;;;;;43.08;19.25;;;31.00;99.90;;;;;;4961335;28;20472;-65
2023/01/01 10:26:17;;;;;;;32.15;16.23;;;31.00;99.90;;;;;;4975286;28;20027;-65
2023/01/01 10:29:00;;;;;;;41.33;22.98;;;31.00;99.90;;;;;;4976004;28;20031;-67
2023/01/01 10:31:33;;;;;;;46.17;20.80;;;31.00;99.90;;;;;;4976136;28;20078;-67
2023/01/01 10:34:17;;;;;;;32.55;13.77;;;31.00;99.90;;;;;;4965006;28;20031;-63
2023/01/01 10:36:43;;;;;;;31.58;16.85;;;31.00;99.90;;;;;;4967519;28;20603;-63
2023/01/01 10:39:15;;;;;;;27.55;14.20;;;30.90;99.90;;;;;;4971589;28;20042;-65
2023/01/01 10:41:42;;;;;;;29.30;14.75;;;30.90;99.90;;;;;;4969839;28;20027;-67
2023/01/01 10:44:10;;;;;;;26.92;14.25;;;30.80;99.90;;;;;;4964839;28;20031;-65
2023/01/01 10:46:43;;;;;;;29.63;15.65;;;30.80;99.90;;;;;;4960506;28;20035;-64
2023/01/01 10:49:15;;;;;;;41.15;18.55;;;30.90;99.90;;;;;;4955334;28;20053;-63
2023/01/01 10:51:45;;;;;;;;;;;30.80;99.90;;;;;;4958899;28;20023;-64
2023/01/01 10:54:34;;;;;;;31.88;14.85;;;30.80;99.90;;;;;;4964540;28;19910;-64
2023/01/01 10:57:13;;;;;;;36.97;21.35;;;30.80;99.90;;;;;;4970134;28;20022;-63
2023/01/01 10:59:41;;;;;;;43.80;25.08;;;30.70;99.90;;;;;;4970040;28;20022;-64
2023/01/01 11:02:27;;;;;;;48.65;26.95;;;30.70;99.90;;;;;;4968091;28;20023;-65
2023/01/01 11:05:15;;;;;;;55.85;30.08;;;30.70;99.90;;;;;;4965657;28;20490;-65
2023/01/01 11:07:43;;;;;;;41.40;20.40;;;30.60;99.90;;;;;;4925408;29;20099;-64
2023/01/01 11:10:22;;;;;;;39.72;19.60;;;30.60;99.90;;;;;;4926763;29;20095;-65
2023/01/01 11:12:52;;;;;;;42.17;22.75;;;30.60;99.90;;;;;;4928202;29;20062;-64
2023/01/01 11:15:40;;;;;;;43.13;23.05;;;30.60;99.90;;;;;;4922419;29;20058;-65
2023/01/01 11:18:19;;;;;;;54.28;26.15;;;30.60;99.90;;;;;;4875058;29;20057;-65
2023/01/01 11:20:55;;;;;;;58.97;30.08;;;30.60;99.90;;;;;;4897462;29;20055;-65
2023/01/01 11:23:41;;;;;;;56.65;29.30;;;30.60;99.90;;;;;;4881579;29;20039;-64
2023/01/01 11:26:17;;;;;;;51.15;28.73;;;30.50;99.90;;;;;;4879222;29;20146;-64
2023/01/01 11:28:59;;;;;;;56.17;27.75;;;30.60;99.90;;;;;;4878308;29;20058;-64
2023/01/01 11:31:35;;;;;;;42.67;23.55;;;30.60;99.90;;;;;;4878040;29;20064;-64
